sensor_id;sensor_type;location;lat;lon;timestamp;temperature;humidity
83808;SHT31;73824;40.292;17.998;2023-12-20T00:00:16;8.13;91.20
83808;SHT31;73824;40.292;17.998;2023-12-20T00:02:42;8.15;91.15
83808;SHT31;73824;40.292;17.998;2023-12-20T00:05:12;8.18;90.96
83808;SHT31;73824;40.292;17.998;2023-12-20T00:07:38;8.13;90.90
83808;SHT31;73824;40.292;17.998;2023-12-20T00:10:04;8.03;90.91
83808;SHT31;73824;40.292;17.998;2023-12-20T00:12:30;8.12;90.85
83808;SHT31;73824;40.292;17.998;2023-12-20T00:14:55;8.12;90.43
83808;SHT31;73824;40.292;17.998;2023-12-20T00:17:21;8.05;90.60
83808;SHT31;73824;40.292;17.998;2023-12-20T00:19:46;7.99;90.69
83808;SHT31;73824;40.292;17.998;2023-12-20T00:22:12;8.03;90.83
83808;SHT31;73824;40.292;17.998;2023-12-20T00:24:37;8.05;90.96
83808;SHT31;73824;40.292;17.998;2023-12-20T00:27:03;8.24;90.52
83808;SHT31;73824;40.292;17.998;2023-12-20T00:29:28;8.40;88.90
83808;SHT31;73824;40.292;17.998;2023-12-20T00:31:54;8.33;87.97
83808;SHT31;73824;40.292;17.998;2023-12-20T00:34:19;8.31;88.19
83808;SHT31;73824;40.292;17.998;2023-12-20T00:36:44;8.16;88.49
83808;SHT31;73824;40.292;17.998;2023-12-20T00:39:10;8.24;88.62
83808;SHT31;73824;40.292;17.998;2023-12-20T00:41:35;8.40;88.53
83808;SHT31;73824;40.292;17.998;2023-12-20T00:44:01;8.48;87.29
83808;SHT31;73824;40.292;17.998;2023-12-20T00:46:26;8.40;87.58
83808;SHT31;73824;40.292;17.998;2023-12-20T00:48:52;8.49;87.68
83808;SHT31;73824;40.292;17.998;2023-12-20T00:51:17;8.50;87.64
83808;SHT31;73824;40.292;17.998;2023-12-20T00:53:43;8.54;87.94
83808;SHT31;73824;40.292;17.998;2023-12-20T00:56:11;8.60;88.09
83808;SHT31;73824;40.292;17.998;2023-12-20T00:58:37;8.57;88.33
83808;SHT31;73824;40.292;17.998;2023-12-20T01:01:02;8.63;88.58
83808;SHT31;73824;40.292;17.998;2023-12-20T01:03:28;8.67;88.69
83808;SHT31;73824;40.292;17.998;2023-12-20T01:05:54;8.70;88.74
83808;SHT31;73824;40.292;17.998;2023-12-20T01:08:19;8.70;88.89
83808;SHT31;73824;40.292;17.998;2023-12-20T01:10:45;8.66;89.08
83808;SHT31;73824;40.292;17.998;2023-12-20T01:13:12;8.73;89.36
83808;SHT31;73824;40.292;17.998;2023-12-20T01:15:37;8.76;89.31
83808;SHT31;73824;40.292;17.998;2023-12-20T01:18:03;8.84;89.41
83808;SHT31;73824;40.292;17.998;2023-12-20T01:20:28;8.90;89.13
83808;SHT31;73824;40.292;17.998;2023-12-20T01:22:54;8.79;89.05
83808;SHT31;73824;40.292;17.998;2023-12-20T01:25:19;8.88;88.42
83808;SHT31;73824;40.292;17.998;2023-12-20T01:27:45;8.67;88.39
83808;SHT31;73824;40.292;17.998;2023-12-20T01:30:11;8.67;88.40
83808;SHT31;73824;40.292;17.998;2023-12-20T01:32:36;8.59;88.66
83808;SHT31;73824;40.292;17.998;2023-12-20T01:35:02;8.49;88.83
83808;SHT31;73824;40.292;17.998;2023-12-20T01:37:27;8.36;89.08
83808;SHT31;73824;40.292;17.998;2023-12-20T01:39:54;8.35;89.42
83808;SHT31;73824;40.292;17.998;2023-12-20T01:42:20;8.32;89.71
83808;SHT31;73824;40.292;17.998;2023-12-20T01:44:45;8.22;89.77
83808;SHT31;73824;40.292;17.998;2023-12-20T01:47:11;8.16;89.89
83808;SHT31;73824;40.292;17.998;2023-12-20T01:49:36;8.28;90.23
83808;SHT31;73824;40.292;17.998;2023-12-20T01:52:02;8.21;90.19
83808;SHT31;73824;40.292;17.998;2023-12-20T01:54:28;8.18;90.27
83808;SHT31;73824;40.292;17.998;2023-12-20T01:56:54;8.15;90.46
83808;SHT31;73824;40.292;17.998;2023-12-20T01:59:20;8.16;90.44
83808;SHT31;73824;40.292;17.998;2023-12-20T02:01:46;8.11;90.36
83808;SHT31;73824;40.292;17.998;2023-12-20T02:04:12;8.05;90.32
83808;SHT31;73824;40.292;17.998;2023-12-20T02:06:40;7.97;90.34
83808;SHT31;73824;40.292;17.998;2023-12-20T02:09:05;7.98;90.30
83808;SHT31;73824;40.292;17.998;2023-12-20T02:11:32;7.87;90.07
83808;SHT31;73824;40.292;17.998;2023-12-20T02:13:58;7.80;90.11
83808;SHT31;73824;40.292;17.998;2023-12-20T02:16:24;7.75;90.15
83808;SHT31;73824;40.292;17.998;2023-12-20T02:18:49;7.67;90.20
83808;SHT31;73824;40.292;17.998;2023-12-20T02:21:15;7.64;90.16
83808;SHT31;73824;40.292;17.998;2023-12-20T02:23:40;7.59;90.19
83808;SHT31;73824;40.292;17.998;2023-12-20T02:26:06;7.57;90.10
83808;SHT31;73824;40.292;17.998;2023-12-20T02:28:32;7.66;89.87
83808;SHT31;73824;40.292;17.998;2023-12-20T02:30:58;7.59;89.73
83808;SHT31;73824;40.292;17.998;2023-12-20T02:33:24;7.57;89.83
83808;SHT31;73824;40.292;17.998;2023-12-20T02:35:49;7.60;89.90
83808;SHT31;73824;40.292;17.998;2023-12-20T02:38:15;7.53;90.00
83808;SHT31;73824;40.292;17.998;2023-12-20T02:40:41;7.64;89.95
83808;SHT31;73824;40.292;17.998;2023-12-20T02:43:06;7.63;89.53
83808;SHT31;73824;40.292;17.998;2023-12-20T02:45:32;7.70;89.06
83808;SHT31;73824;40.292;17.998;2023-12-20T02:47:57;7.74;88.43
83808;SHT31;73824;40.292;17.998;2023-12-20T02:50:23;7.70;87.92
83808;SHT31;73824;40.292;17.998;2023-12-20T02:52:48;7.59;88.52
83808;SHT31;73824;40.292;17.998;2023-12-20T02:55:14;7.56;89.10
83808;SHT31;73824;40.292;17.998;2023-12-20T02:57:39;7.69;89.26
83808;SHT31;73824;40.292;17.998;2023-12-20T03:00:09;7.69;89.33
83808;SHT31;73824;40.292;17.998;2023-12-20T03:02:35;7.73;89.38
83808;SHT31;73824;40.292;17.998;2023-12-20T03:05:01;7.77;89.37
83808;SHT31;73824;40.292;17.998;2023-12-20T03:07:27;7.83;89.41
83808;SHT31;73824;40.292;17.998;2023-12-20T03:09:52;7.87;89.48
83808;SHT31;73824;40.292;17.998;2023-12-20T03:12:18;7.98;89.41
83808;SHT31;73824;40.292;17.998;2023-12-20T03:14:44;7.99;89.25
83808;SHT31;73824;40.292;17.998;2023-12-20T03:17:10;8.02;89.10
83808;SHT31;73824;40.292;17.998;2023-12-20T03:19:35;8.11;89.12
83808;SHT31;73824;40.292;17.998;2023-12-20T03:22:01;8.11;89.17
83808;SHT31;73824;40.292;17.998;2023-12-20T03:24:27;8.16;89.02
83808;SHT31;73824;40.292;17.998;2023-12-20T03:26:52;8.16;88.91
83808;SHT31;73824;40.292;17.998;2023-12-20T03:29:18;8.22;88.77
83808;SHT31;73824;40.292;17.998;2023-12-20T03:31:43;8.24;88.45
83808;SHT31;73824;40.292;17.998;2023-12-20T03:34:09;8.18;88.11
83808;SHT31;73824;40.292;17.998;2023-12-20T03:36:34;8.15;88.24
83808;SHT31;73824;40.292;17.998;2023-12-20T03:39:00;8.19;88.20
83808;SHT31;73824;40.292;17.998;2023-12-20T03:41:25;8.26;88.36
83808;SHT31;73824;40.292;17.998;2023-12-20T03:43:51;8.31;88.36
83808;SHT31;73824;40.292;17.998;2023-12-20T03:46:17;8.38;88.34
83808;SHT31;73824;40.292;17.998;2023-12-20T03:48:42;8.36;88.31
83808;SHT31;73824;40.292;17.998;2023-12-20T03:51:08;8.39;88.38
83808;SHT31;73824;40.292;17.998;2023-12-20T03:53:33;8.67;87.72
83808;SHT31;73824;40.292;17.998;2023-12-20T03:55:59;8.79;86.76
83808;SHT31;73824;40.292;17.998;2023-12-20T03:58:24;8.84;86.84
83808;SHT31;73824;40.292;17.998;2023-12-20T04:00:50;8.76;87.13
83808;SHT31;73824;40.292;17.998;2023-12-20T04:03:15;8.70;87.35
83808;SHT31;73824;40.292;17.998;2023-12-20T04:05:41;8.81;87.37
83808;SHT31;73824;40.292;17.998;2023-12-20T04:08:07;8.70;87.10
83808;SHT31;73824;40.292;17.998;2023-12-20T04:10:32;8.40;87.17
83808;SHT31;73824;40.292;17.998;2023-12-20T04:12:58;8.15;87.22
83808;SHT31;73824;40.292;17.998;2023-12-20T04:15:23;8.02;87.37
83808;SHT31;73824;40.292;17.998;2023-12-20T04:17:49;7.92;87.59
83808;SHT31;73824;40.292;17.998;2023-12-20T04:20:14;7.91;87.78
83808;SHT31;73824;40.292;17.998;2023-12-20T04:22:40;7.90;87.78
83808;SHT31;73824;40.292;17.998;2023-12-20T04:25:06;7.91;88.06
83808;SHT31;73824;40.292;17.998;2023-12-20T04:27:31;7.87;88.36
83808;SHT31;73824;40.292;17.998;2023-12-20T04:29:57;7.99;88.44
83808;SHT31;73824;40.292;17.998;2023-12-20T04:32:22;8.08;88.48
83808;SHT31;73824;40.292;17.998;2023-12-20T04:34:48;8.08;88.32
83808;SHT31;73824;40.292;17.998;2023-12-20T04:37:13;7.98;88.42
83808;SHT31;73824;40.292;17.998;2023-12-20T04:39:39;7.94;88.71
83808;SHT31;73824;40.292;17.998;2023-12-20T04:42:06;7.91;89.13
83808;SHT31;73824;40.292;17.998;2023-12-20T04:44:31;7.88;89.33
83808;SHT31;73824;40.292;17.998;2023-12-20T04:46:57;7.91;89.41
83808;SHT31;73824;40.292;17.998;2023-12-20T04:49:22;7.90;89.42
83808;SHT31;73824;40.292;17.998;2023-12-20T04:51:48;7.90;89.26
83808;SHT31;73824;40.292;17.998;2023-12-20T04:54:14;7.91;89.15
83808;SHT31;73824;40.292;17.998;2023-12-20T04:56:41;7.84;89.46
83808;SHT31;73824;40.292;17.998;2023-12-20T04:59:06;7.77;89.70
83808;SHT31;73824;40.292;17.998;2023-12-20T05:01:32;7.78;89.95
83808;SHT31;73824;40.292;17.998;2023-12-20T05:03:57;7.70;89.90
83808;SHT31;73824;40.292;17.998;2023-12-20T05:06:23;7.64;90.02
83808;SHT31;73824;40.292;17.998;2023-12-20T05:08:49;7.59;90.12
83808;SHT31;73824;40.292;17.998;2023-12-20T05:11:15;7.54;90.35
83808;SHT31;73824;40.292;17.998;2023-12-20T05:13:41;7.56;90.39
83808;SHT31;73824;40.292;17.998;2023-12-20T05:16:07;7.52;90.38
83808;SHT31;73824;40.292;17.998;2023-12-20T05:18:34;7.50;90.51
83808;SHT31;73824;40.292;17.998;2023-12-20T05:20:59;7.47;90.52
83808;SHT31;73824;40.292;17.998;2023-12-20T05:23:25;7.43;90.65
83808;SHT31;73824;40.292;17.998;2023-12-20T05:25:51;7.40;90.69
83808;SHT31;73824;40.292;17.998;2023-12-20T05:28:16;7.40;90.74
83808;SHT31;73824;40.292;17.998;2023-12-20T05:30:42;7.42;90.87
83808;SHT31;73824;40.292;17.998;2023-12-20T05:33:08;7.46;90.82
83808;SHT31;73824;40.292;17.998;2023-12-20T05:35:34;7.56;90.62
83808;SHT31;73824;40.292;17.998;2023-12-20T05:38:00;7.52;90.07
83808;SHT31;73824;40.292;17.998;2023-12-20T05:40:25;7.46;89.62
83808;SHT31;73824;40.292;17.998;2023-12-20T05:42:51;7.44;89.43
83808;SHT31;73824;40.292;17.998;2023-12-20T05:45:16;7.39;89.19
83808;SHT31;73824;40.292;17.998;2023-12-20T05:47:42;7.40;89.23
83808;SHT31;73824;40.292;17.998;2023-12-20T05:50:07;7.39;89.18
83808;SHT31;73824;40.292;17.998;2023-12-20T05:52:34;7.42;89.08
83808;SHT31;73824;40.292;17.998;2023-12-20T05:54:59;7.57;89.00
83808;SHT31;73824;40.292;17.998;2023-12-20T05:57:27;7.62;88.69
83808;SHT31;73824;40.292;17.998;2023-12-20T05:59:52;7.54;88.98
83808;SHT31;73824;40.292;17.998;2023-12-20T06:02:18;7.60;88.93
83808;SHT31;73824;40.292;17.998;2023-12-20T06:04:44;7.70;88.19
83808;SHT31;73824;40.292;17.998;2023-12-20T06:07:14;7.62;87.92
83808;SHT31;73824;40.292;17.998;2023-12-20T06:09:39;7.52;88.30
83808;SHT31;73824;40.292;17.998;2023-12-20T06:12:07;7.49;88.58
83808;SHT31;73824;40.292;17.998;2023-12-20T06:14:33;7.57;88.04
83808;SHT31;73824;40.292;17.998;2023-12-20T06:17:00;7.49;88.50
83808;SHT31;73824;40.292;17.998;2023-12-20T06:19:26;7.43;88.92
83808;SHT31;73824;40.292;17.998;2023-12-20T06:21:52;7.53;88.92
83808;SHT31;73824;40.292;17.998;2023-12-20T06:24:17;7.57;89.02
83808;SHT31;73824;40.292;17.998;2023-12-20T06:26:43;7.71;88.94
83808;SHT31;73824;40.292;17.998;2023-12-20T06:29:08;7.73;88.53
83808;SHT31;73824;40.292;17.998;2023-12-20T06:31:34;7.73;88.06
83808;SHT31;73824;40.292;17.998;2023-12-20T06:33:59;7.69;88.27
83808;SHT31;73824;40.292;17.998;2023-12-20T06:36:26;7.78;87.87
83808;SHT31;73824;40.292;17.998;2023-12-20T06:38:52;7.99;88.11
83808;SHT31;73824;40.292;17.998;2023-12-20T06:41:18;8.15;88.21
83808;SHT31;73824;40.292;17.998;2023-12-20T06:43:44;8.91;87.77
83808;SHT31;73824;40.292;17.998;2023-12-20T06:46:09;9.94;84.96
83808;SHT31;73824;40.292;17.998;2023-12-20T06:48:35;10.40;82.41
83808;SHT31;73824;40.292;17.998;2023-12-20T06:51:01;10.46;81.02
83808;SHT31;73824;40.292;17.998;2023-12-20T06:53:30;10.51;81.09
83808;SHT31;73824;40.292;17.998;2023-12-20T06:55:55;10.66;80.95
83808;SHT31;73824;40.292;17.998;2023-12-20T06:58:23;10.88;78.81
83808;SHT31;73824;40.292;17.998;2023-12-20T07:00:51;10.72;79.33
83808;SHT31;73824;40.292;17.998;2023-12-20T07:03:17;10.75;78.55
83808;SHT31;73824;40.292;17.998;2023-12-20T07:05:43;10.63;78.42
83808;SHT31;73824;40.292;17.998;2023-12-20T07:08:09;10.52;79.60
83808;SHT31;73824;40.292;17.998;2023-12-20T07:10:34;10.53;79.59
83808;SHT31;73824;40.292;17.998;2023-12-20T07:13:02;10.63;80.05
83808;SHT31;73824;40.292;17.998;2023-12-20T07:15:28;10.72;79.57
83808;SHT31;73824;40.292;17.998;2023-12-20T07:17:54;10.73;79.20
83808;SHT31;73824;40.292;17.998;2023-12-20T07:20:20;10.97;78.59
83808;SHT31;73824;40.292;17.998;2023-12-20T07:22:45;10.99;77.74
83808;SHT31;73824;40.292;17.998;2023-12-20T07:25:11;11.07;77.80
83808;SHT31;73824;40.292;17.998;2023-12-20T07:27:36;11.57;78.06
83808;SHT31;73824;40.292;17.998;2023-12-20T07:30:02;12.95;73.35
83808;SHT31;73824;40.292;17.998;2023-12-20T07:32:28;15.14;67.64
83808;SHT31;73824;40.292;17.998;2023-12-20T07:34:53;17.93;59.47
83808;SHT31;73824;40.292;17.998;2023-12-20T07:37:20;20.98;50.15
83808;SHT31;73824;40.292;17.998;2023-12-20T07:39:46;23.16;42.82
83808;SHT31;73824;40.292;17.998;2023-12-20T07:42:11;21.88;40.17
83808;SHT31;73824;40.292;17.998;2023-12-20T07:44:37;20.63;45.34
83808;SHT31;73824;40.292;17.998;2023-12-20T07:47:03;19.67;46.75
83808;SHT31;73824;40.292;17.998;2023-12-20T07:49:30;18.40;50.34
83808;SHT31;73824;40.292;17.998;2023-12-20T07:51:56;17.41;53.69
83808;SHT31;73824;40.292;17.998;2023-12-20T07:54:21;18.17;51.64
83808;SHT31;73824;40.292;17.998;2023-12-20T07:56:47;17.75;51.68
83808;SHT31;73824;40.292;17.998;2023-12-20T07:59:12;16.86;54.36
83808;SHT31;73824;40.292;17.998;2023-12-20T08:01:38;15.49;59.15
83808;SHT31;73824;40.292;17.998;2023-12-20T08:04:03;14.50;62.39
83808;SHT31;73824;40.292;17.998;2023-12-20T08:06:29;14.00;65.06
83808;SHT31;73824;40.292;17.998;2023-12-20T08:08:54;13.74;66.67
83808;SHT31;73824;40.292;17.998;2023-12-20T08:11:20;14.93;64.74
83808;SHT31;73824;40.292;17.998;2023-12-20T08:13:45;15.29;62.89
83808;SHT31;73824;40.292;17.998;2023-12-20T08:16:11;17.62;60.51
83808;SHT31;73824;40.292;17.998;2023-12-20T08:18:39;21.37;49.05
83808;SHT31;73824;40.292;17.998;2023-12-20T08:21:04;24.60;41.37
83808;SHT31;73824;40.292;17.998;2023-12-20T08:23:33;26.62;38.14
83808;SHT31;73824;40.292;17.998;2023-12-20T08:25:58;28.82;32.02
83808;SHT31;73824;40.292;17.998;2023-12-20T08:28:24;29.56;31.77
83808;SHT31;73824;40.292;17.998;2023-12-20T08:30:49;30.31;30.94
83808;SHT31;73824;40.292;17.998;2023-12-20T08:33:18;31.21;28.92
83808;SHT31;73824;40.292;17.998;2023-12-20T08:35:44;32.09;28.68
83808;SHT31;73824;40.292;17.998;2023-12-20T08:38:09;32.81;27.05
83808;SHT31;73824;40.292;17.998;2023-12-20T08:40:35;33.11;26.69
83808;SHT31;73824;40.292;17.998;2023-12-20T08:43:01;33.69;26.35
83808;SHT31;73824;40.292;17.998;2023-12-20T08:45:26;33.94;25.72
83808;SHT31;73824;40.292;17.998;2023-12-20T08:47:52;33.84;26.81
83808;SHT31;73824;40.292;17.998;2023-12-20T08:50:17;33.60;26.83
83808;SHT31;73824;40.292;17.998;2023-12-20T08:52:43;33.29;26.33
83808;SHT31;73824;40.292;17.998;2023-12-20T08:55:09;33.41;27.04
83808;SHT31;73824;40.292;17.998;2023-12-20T08:57:35;33.97;27.19
83808;SHT31;73824;40.292;17.998;2023-12-20T09:00:01;33.39;26.78
83808;SHT31;73824;40.292;17.998;2023-12-20T09:02:27;33.97;27.42
83808;SHT31;73824;40.292;17.998;2023-12-20T09:04:52;33.64;26.55
83808;SHT31;73824;40.292;17.998;2023-12-20T09:07:25;30.94;29.94
83808;SHT31;73824;40.292;17.998;2023-12-20T09:09:51;31.65;31.13
83808;SHT31;73824;40.292;17.998;2023-12-20T09:12:18;31.83;29.28
83808;SHT31;73824;40.292;17.998;2023-12-20T09:14:45;31.93;29.48
83808;SHT31;73824;40.292;17.998;2023-12-20T09:17:12;29.06;33.99
83808;SHT31;73824;40.292;17.998;2023-12-20T09:19:38;29.29;33.65
83808;SHT31;73824;40.292;17.998;2023-12-20T09:22:05;29.94;32.86
83808;SHT31;73824;40.292;17.998;2023-12-20T09:24:31;28.90;34.16
83808;SHT31;73824;40.292;17.998;2023-12-20T09:26:57;27.31;36.21
83808;SHT31;73824;40.292;17.998;2023-12-20T09:29:23;25.11;41.66
83808;SHT31;73824;40.292;17.998;2023-12-20T09:31:48;22.98;46.78
83808;SHT31;73824;40.292;17.998;2023-12-20T09:34:15;20.91;51.72
83808;SHT31;73824;40.292;17.998;2023-12-20T09:36:41;19.95;55.20
83808;SHT31;73824;40.292;17.998;2023-12-20T09:39:14;18.48;59.62
83808;SHT31;73824;40.292;17.998;2023-12-20T09:41:44;18.12;61.81
83808;SHT31;73824;40.292;17.998;2023-12-20T09:44:16;17.47;64.60
83808;SHT31;73824;40.292;17.998;2023-12-20T09:46:44;17.37;65.94
83808;SHT31;73824;40.292;17.998;2023-12-20T09:49:11;17.27;65.79
83808;SHT31;73824;40.292;17.998;2023-12-20T09:51:38;17.30;66.35
83808;SHT31;73824;40.292;17.998;2023-12-20T09:54:03;17.30;66.35
83808;SHT31;73824;40.292;17.998;2023-12-20T09:56:30;17.19;66.69
83808;SHT31;73824;40.292;17.998;2023-12-20T09:58:56;17.17;66.40
83808;SHT31;73824;40.292;17.998;2023-12-20T10:01:22;17.03;67.40
83808;SHT31;73824;40.292;17.998;2023-12-20T10:03:50;17.02;67.05
83808;SHT31;73824;40.292;17.998;2023-12-20T10:06:16;17.10;66.96
83808;SHT31;73824;40.292;17.998;2023-12-20T10:08:42;17.34;66.42
83808;SHT31;73824;40.292;17.998;2023-12-20T10:11:07;17.21;66.11
83808;SHT31;73824;40.292;17.998;2023-12-20T10:13:33;17.21;66.84
83808;SHT31;73824;40.292;17.998;2023-12-20T10:15:59;17.10;66.37
83808;SHT31;73824;40.292;17.998;2023-12-20T10:18:24;17.26;66.22
83808;SHT31;73824;40.292;17.998;2023-12-20T10:20:50;17.14;66.62
83808;SHT31;73824;40.292;17.998;2023-12-20T10:23:16;16.97;66.70
83808;SHT31;73824;40.292;17.998;2023-12-20T10:25:41;16.83;67.39
83808;SHT31;73824;40.292;17.998;2023-12-20T10:28:14;16.51;67.56
83808;SHT31;73824;40.292;17.998;2023-12-20T10:30:42;16.49;68.10
83808;SHT31;73824;40.292;17.998;2023-12-20T10:33:09;16.40;67.50
83808;SHT31;73824;40.292;17.998;2023-12-20T10:35:38;16.73;66.23
83808;SHT31;73824;40.292;17.998;2023-12-20T10:38:05;16.89;64.63
83808;SHT31;73824;40.292;17.998;2023-12-20T10:40:34;17.19;62.97
83808;SHT31;73824;40.292;17.998;2023-12-20T10:43:02;16.96;63.89
83808;SHT31;73824;40.292;17.998;2023-12-20T10:45:27;16.72;65.44
83808;SHT31;73824;40.292;17.998;2023-12-20T10:47:53;16.34;66.84
83808;SHT31;73824;40.292;17.998;2023-12-20T10:50:19;16.34;67.18
83808;SHT31;73824;40.292;17.998;2023-12-20T10:52:47;16.86;65.11
83808;SHT31;73824;40.292;17.998;2023-12-20T10:55:13;17.00;63.54
83808;SHT31;73824;40.292;17.998;2023-12-20T10:57:39;16.55;64.11
83808;SHT31;73824;40.292;17.998;2023-12-20T11:00:11;16.11;63.59
83808;SHT31;73824;40.292;17.998;2023-12-20T11:02:40;16.21;64.22
83808;SHT31;73824;40.292;17.998;2023-12-20T11:07:43;16.14;64.34
83808;SHT31;73824;40.292;17.998;2023-12-20T11:10:21;15.97;65.76
83808;SHT31;73824;40.292;17.998;2023-12-20T11:13:08;16.10;65.24
83808;SHT31;73824;40.292;17.998;2023-12-20T11:15:36;15.98;65.67
83808;SHT31;73824;40.292;17.998;2023-12-20T11:18:03;15.90;66.02
83808;SHT31;73824;40.292;17.998;2023-12-20T11:20:39;15.82;66.68
83808;SHT31;73824;40.292;17.998;2023-12-20T11:23:06;15.91;66.62
83808;SHT31;73824;40.292;17.998;2023-12-20T11:25:55;16.18;66.74
83808;SHT31;73824;40.292;17.998;2023-12-20T11:28:23;16.03;66.05
83808;SHT31;73824;40.292;17.998;2023-12-20T11:30:54;15.89;66.52
83808;SHT31;73824;40.292;17.998;2023-12-20T11:33:25;16.03;67.20
83808;SHT31;73824;40.292;17.998;2023-12-20T11:35:51;15.86;67.23
83808;SHT31;73824;40.292;17.998;2023-12-20T11:38:17;15.83;67.01
83808;SHT31;73824;40.292;17.998;2023-12-20T11:40:43;15.93;66.63
83808;SHT31;73824;40.292;17.998;2023-12-20T11:43:09;16.00;65.91
83808;SHT31;73824;40.292;17.998;2023-12-20T11:45:35;16.06;66.33
83808;SHT31;73824;40.292;17.998;2023-12-20T11:48:01;16.00;66.42
83808;SHT31;73824;40.292;17.998;2023-12-20T11:50:28;15.82;67.31
83808;SHT31;73824;40.292;17.998;2023-12-20T11:52:56;16.00;66.26
83808;SHT31;73824;40.292;17.998;2023-12-20T11:55:22;15.87;65.20
83808;SHT31;73824;40.292;17.998;2023-12-20T11:57:50;15.83;65.36
83808;SHT31;73824;40.292;17.998;2023-12-20T12:00:16;15.82;65.14
83808;SHT31;73824;40.292;17.998;2023-12-20T12:02:41;15.65;66.16
83808;SHT31;73824;40.292;17.998;2023-12-20T12:05:07;15.71;64.78
83808;SHT31;73824;40.292;17.998;2023-12-20T12:07:36;15.63;65.29
83808;SHT31;73824;40.292;17.998;2023-12-20T12:10:02;15.65;65.20
83808;SHT31;73824;40.292;17.998;2023-12-20T12:12:29;15.58;65.92
83808;SHT31;73824;40.292;17.998;2023-12-20T12:14:55;15.58;66.39
83808;SHT31;73824;40.292;17.998;2023-12-20T12:17:22;15.66;66.27
83808;SHT31;73824;40.292;17.998;2023-12-20T12:19:48;15.67;66.75
83808;SHT31;73824;40.292;17.998;2023-12-20T12:22:15;15.62;67.07
83808;SHT31;73824;40.292;17.998;2023-12-20T12:24:46;15.63;67.23
83808;SHT31;73824;40.292;17.998;2023-12-20T12:27:15;15.66;66.67
83808;SHT31;73824;40.292;17.998;2023-12-20T12:29:43;15.52;66.78
83808;SHT31;73824;40.292;17.998;2023-12-20T12:32:25;15.50;67.06
83808;SHT31;73824;40.292;17.998;2023-12-20T12:34:50;15.35;67.50
83808;SHT31;73824;40.292;17.998;2023-12-20T12:37:16;15.41;67.65
83808;SHT31;73824;40.292;17.998;2023-12-20T12:39:42;15.42;67.50
83808;SHT31;73824;40.292;17.998;2023-12-20T12:42:07;15.42;67.05
83808;SHT31;73824;40.292;17.998;2023-12-20T12:44:33;15.39;67.31
83808;SHT31;73824;40.292;17.998;2023-12-20T12:46:58;15.38;66.04
83808;SHT31;73824;40.292;17.998;2023-12-20T12:49:24;15.39;66.36
83808;SHT31;73824;40.292;17.998;2023-12-20T12:51:49;15.46;66.44
83808;SHT31;73824;40.292;17.998;2023-12-20T12:54:15;15.50;65.95
83808;SHT31;73824;40.292;17.998;2023-12-20T12:56:44;15.45;65.99
83808;SHT31;73824;40.292;17.998;2023-12-20T12:59:10;15.39;66.45
83808;SHT31;73824;40.292;17.998;2023-12-20T13:01:36;15.34;67.45
83808;SHT31;73824;40.292;17.998;2023-12-20T13:04:01;15.34;67.23
83808;SHT31;73824;40.292;17.998;2023-12-20T13:06:29;15.24;67.70
83808;SHT31;73824;40.292;17.998;2023-12-20T13:08:55;15.18;67.52
83808;SHT31;73824;40.292;17.998;2023-12-20T13:11:20;15.20;68.68
83808;SHT31;73824;40.292;17.998;2023-12-20T13:13:46;15.28;67.93
83808;SHT31;73824;40.292;17.998;2023-12-20T13:16:12;15.25;67.21
83808;SHT31;73824;40.292;17.998;2023-12-20T13:18:38;15.21;67.49
83808;SHT31;73824;40.292;17.998;2023-12-20T13:21:07;15.20;67.85
83808;SHT31;73824;40.292;17.998;2023-12-20T13:23:33;15.17;67.94
83808;SHT31;73824;40.292;17.998;2023-12-20T13:25:58;15.27;67.89
83808;SHT31;73824;40.292;17.998;2023-12-20T13:28:24;15.24;67.57
83808;SHT31;73824;40.292;17.998;2023-12-20T13:30:50;15.21;67.35
83808;SHT31;73824;40.292;17.998;2023-12-20T13:33:15;15.17;68.03
83808;SHT31;73824;40.292;17.998;2023-12-20T13:35:41;15.12;68.00
83808;SHT31;73824;40.292;17.998;2023-12-20T13:38:06;15.10;68.21
83808;SHT31;73824;40.292;17.998;2023-12-20T13:40:33;15.05;69.21
83808;SHT31;73824;40.292;17.998;2023-12-20T13:42:58;15.10;68.80
83808;SHT31;73824;40.292;17.998;2023-12-20T13:45:24;15.01;68.82
83808;SHT31;73824;40.292;17.998;2023-12-20T13:47:50;14.95;68.99
83808;SHT31;73824;40.292;17.998;2023-12-20T13:50:16;14.91;69.40
83808;SHT31;73824;40.292;17.998;2023-12-20T13:52:41;14.98;69.10
83808;SHT31;73824;40.292;17.998;2023-12-20T13:55:07;14.95;69.39
83808;SHT31;73824;40.292;17.998;2023-12-20T13:57:33;14.88;69.83
83808;SHT31;73824;40.292;17.998;2023-12-20T13:59:59;14.87;70.35
83808;SHT31;73824;40.292;17.998;2023-12-20T14:02:25;14.98;69.96
83808;SHT31;73824;40.292;17.998;2023-12-20T14:04:52;14.90;69.82
83808;SHT31;73824;40.292;17.998;2023-12-20T14:07:18;14.81;70.09
83808;SHT31;73824;40.292;17.998;2023-12-20T14:09:43;14.84;70.07
83808;SHT31;73824;40.292;17.998;2023-12-20T14:12:11;14.79;69.97
83808;SHT31;73824;40.292;17.998;2023-12-20T14:14:36;14.72;70.24
83808;SHT31;73824;40.292;17.998;2023-12-20T14:17:02;14.72;70.21
83808;SHT31;73824;40.292;17.998;2023-12-20T14:19:28;14.63;70.60
83808;SHT31;73824;40.292;17.998;2023-12-20T14:21:53;14.73;70.40
83808;SHT31;73824;40.292;17.998;2023-12-20T14:24:19;14.64;70.91
83808;SHT31;73824;40.292;17.998;2023-12-20T14:26:44;14.60;71.20
83808;SHT31;73824;40.292;17.998;2023-12-20T14:29:10;14.66;71.24
83808;SHT31;73824;40.292;17.998;2023-12-20T14:31:35;14.56;71.73
83808;SHT31;73824;40.292;17.998;2023-12-20T14:34:02;14.60;71.55
83808;SHT31;73824;40.292;17.998;2023-12-20T14:36:29;14.52;71.74
83808;SHT31;73824;40.292;17.998;2023-12-20T14:38:58;14.45;72.12
83808;SHT31;73824;40.292;17.998;2023-12-20T14:41:23;14.37;72.43
83808;SHT31;73824;40.292;17.998;2023-12-20T14:43:50;14.39;72.26
83808;SHT31;73824;40.292;17.998;2023-12-20T14:46:17;14.35;72.15
83808;SHT31;73824;40.292;17.998;2023-12-20T14:48:42;14.32;72.34
83808;SHT31;73824;40.292;17.998;2023-12-20T14:51:08;14.30;72.72
83808;SHT31;73824;40.292;17.998;2023-12-20T14:53:34;14.22;72.80
83808;SHT31;73824;40.292;17.998;2023-12-20T14:56:03;14.18;72.65
83808;SHT31;73824;40.292;17.998;2023-12-20T14:58:29;14.05;72.90
83808;SHT31;73824;40.292;17.998;2023-12-20T15:00:55;13.94;73.00
83808;SHT31;73824;40.292;17.998;2023-12-20T15:03:21;13.79;73.56
83808;SHT31;73824;40.292;17.998;2023-12-20T15:05:47;13.68;74.03
83808;SHT31;73824;40.292;17.998;2023-12-20T15:08:13;13.56;74.41
83808;SHT31;73824;40.292;17.998;2023-12-20T15:10:39;13.43;74.94
83808;SHT31;73824;40.292;17.998;2023-12-20T15:13:05;13.33;75.37
83808;SHT31;73824;40.292;17.998;2023-12-20T15:15:31;13.20;76.16
83808;SHT31;73824;40.292;17.998;2023-12-20T15:17:59;13.08;76.52